Denpasar, Indonesia

4:57 PM WITA on November 28, 2014 (GMT +0800)
BALI INTL | Change Station
CLOSE
Current Station
Airport
Location: BALI INTL,
Elevation: 13 ft
Nearby Weather Stations

Elev 13 ft 8.75 °S, 115.17 °E | Updated 27 minutes ago

Scattered Clouds
Scattered Clouds
84 °F
Feels Like 94 °F
N
7
Wind Variable Wind from WSW

Today
High -- | Low -- °F
--% Chance of Precip.
Yesterday
High -- | Low -- °F
Precip. -- in
5:49 AM 6:24 PM
Waxing Crescent, 38% visible
Pressure 29.74 in
Visibility 6.2 miles
Clouds Few 1600 ft
Scattered Clouds 1600 ft
Heat Index 94 °F
Dew Point 77 °F
Humidity 79%
Rainfall 0.00 in
Snow Depth Not available.
UV 2 out of 12
Pollen Not available.
Air Quality Not available.
Flu Activity Not available.
METAR WADD 280830Z 25006KT 9999 FEW016CB SCT016 29/25 Q1007 NOSIG

More Conditions Fewer Conditions

Pressure 29.74 in
Visibility 6.2 miles
Clouds Few 1600 ft
Scattered Clouds 1600 ft
Heat Index 94 °F
Dew Point 77 °F
Humidity 79%
Rainfall 0.00 in
Snow Depth Not available.
UV 2 out of 12
Pollen Not available.
Air Quality Not available.
Flu Activity Not available.
METAR WADD 280830Z 25006KT 9999 FEW016CB SCT016 29/25 Q1007 NOSIG

More Conditions Fewer Conditions

10-Day Weather Forecast

Almanac

Astronomy

Nov. 28, 2014 Rise Set
Actual Time
Civil Twilight
Nautical Twilight
Astronomical Twilight
Moon
Length of Visible Light
Length of Day
Tomorrow will be .
, % of the Moon is Illuminated

Today's Extremes

Country Highs Country Lows

Community

WunderPhotos

Upload Photos

1,774,190 photos uploaded!

WunderBlogs® & News

Nearby

Air Quality

  Air Quality AQ Index Pollutant
Not available.

Snow Depth

Station Depth Elevation

Earthquake Activity

City Distance Mag. Time & Date
Minimum magnitude displayed is 2.5.

Coastal Water Temperatures

Place Temperature

Nearby Weather Stations